Flight Track Log - Related Links

Times and Time Zones

All times are in EDT time to prevent confusion due to time zone crossing. See the JBU56 flight status page for this flight to view local times or setup timezone preferences in your user account.

Time Position Orientation Groundspeed Altitude Reporting Facility
EDT Latitude Longitude Course Direction KTS MPH feet Rate Location/Type
Thu 09:54:05 AM 40.6500 -73.8167 217° Southwest 161 185 1,300  Level New York TRACON
Thu 09:55:05 AM 40.6000 -73.8667 217° Southwest 222 255 3,100 2,200 Climbing New York TRACON
Thu 09:56:05 AM 40.5833 -73.8000 108° East 267 307 5,700 2,700 Climbing New York TRACON
Thu 09:57:05 AM 40.6000 -73.7000 78° East 313 360 8,500 2,400 Climbing New York TRACON
Thu 09:58:05 AM 40.6667 -73.6167 43° Northeast 325 374 10,500 1,725 Climbing New York TRACON
Thu 09:59:52 AM 40.7992 -73.4847 37° Northeast 351 404 13,300 1,689 Climbing Boston Center
Thu 10:00:52 AM 40.9000 -73.4094 29° Northeast 382 440 15,200 2,000 Climbing Boston Center
Thu 10:01:52 AM 41.0314 -73.3811 North 410 472 17,300 1,800 Climbing Boston Center
Thu 10:02:52 AM 41.1400 -73.3633 North 432 497 18,800 1,650 Climbing Boston Center
Thu 10:03:52 AM 41.2714 -73.3458 North 449 517 20,600 1,100 Climbing Boston Center
Thu 10:04:52 AM 41.4028 -73.3256 North 463 533 21,000 200 Climbing Boston Center
Thu 10:05:52 AM 41.5264 -73.2553 23° Northeast 469 540 21,000  Level Boston Center
Thu 10:06:52 AM 41.6536 -73.2153 13° North 469 540 21,000  Level Boston Center
Thu 10:07:52 AM 41.7892 -73.2142 360° North 469 540 21,000  Level Boston Center
Thu 10:08:52 AM 41.9247 -73.2103 North 480 552 21,000  Level Boston Center
Thu 10:09:52 AM 42.0622 -73.2064 North 485 558 21,000  Level Boston Center
Thu 10:10:52 AM 42.2103 -73.2053 360° North 485 558 21,000  Level Boston Center
Thu 10:11:52 AM 42.3353 -73.1928 North 480 552 21,000  Level Boston Center
Thu 10:12:52 AM 42.4708 -73.1917 360° North 485 558 21,000  Level Boston Center
Thu 10:13:52 AM 42.6189 -73.1933 360° North 485 558 21,000  Level Boston Center
Thu 10:14:52 AM 42.7542 -73.1922 360° North 480 552 21,000  Level Boston Center
Thu 10:15:52 AM 42.8919 -73.1883 North 480 552 21,000  Level Boston Center
Thu 10:16:52 AM 43.0272 -73.1869 360° North 480 552 21,000  Level Boston Center
Thu 10:17:52 AM 43.1608 -73.1831 North 480 552 21,000  Level Boston Center
Thu 10:18:52 AM 43.2878 -73.1817 360° North 469 540 21,000 -250 Level Boston Center
Thu 10:19:52 AM 43.4131 -73.1775 North 454 522 20,500 -1,350 Descending Boston Center
Thu 10:20:52 AM 43.5319 -73.1444 11° North 443 510 18,300 -2,250 Descending Boston Center
Thu 10:21:52 AM 43.6447 -73.1058 14° North 423 487 16,000 -2,150 Descending Boston Center
Thu 10:22:52 AM 43.7469 -73.0694 14° North 399 459 14,000 -2,050 Descending Boston Center
Thu 10:23:52 AM 43.8494 -73.0361 13° North 377 434 11,900 -1,750 Descending Boston Center
Thu 10:24:52 AM 43.9433 -73.0022 15° North 358 412 10,500 -1,364 Descending Boston Center
Thu 10:26:04 AM 44.0372 -72.9714 13° North 306 352 8,900 -1,545 Descending Boston Center
Thu 10:27:04 AM 44.1061 -72.9231 27° Northeast 276 318 7,100 -950 Descending Boston Center
Thu 10:28:04 AM 44.1625 -72.8683 35° Northeast 263 303 7,000 -500 Descending Boston Center
Thu 10:29:04 AM 44.2189 -72.8194 32° Northeast 251 289 6,100 -500 Descending Boston Center
Thu 10:30:04 AM 44.2711 -72.8344 348° North 193 222 6,000 -400 Descending Boston Center
Thu 10:31:04 AM 44.3064 -72.8897 312° West 181 208 5,300 -900 Descending Boston Center
Thu 10:32:04 AM 44.3436 -72.9453 313° West 195 224 4,200 -1,100 Descending Boston Center
Thu 10:33:04 AM 44.3786 -73.0036 310° West 195 224 3,100 -1,050 Descending Boston Center
Thu 10:34:04 AM 44.4139 -73.0592 312° West 195 224 2,100 -909 Descending Boston Center
Thu 10:35:16 AM 44.4406 -73.1058 309° West 158 182 1,100 -818 Descending Boston Center
Thu 10:36:16 AM 44.4694 -73.1528 311° West 141 162 300 -400 Descending Boston Center
Thu 10:37:16 AM 44.4903 -73.1850 312° West 128 147 300  Level Boston Center

Login

Don't have an account? Register now (free) for customized features, flight alerts, and more!